createdAt,value
2018-09-27T00:00:39.027Z,1018.26
2018-09-27T00:01:39.029Z,1018.25
2018-09-27T00:02:38.980Z,1018.25
2018-09-27T00:03:38.965Z,1018.20
2018-09-27T00:04:38.933Z,1018.19
2018-09-27T00:05:38.898Z,1018.18
2018-09-27T00:06:38.882Z,1018.18
2018-09-27T00:07:38.852Z,1018.21
2018-09-27T00:08:38.831Z,1018.21
2018-09-27T00:09:38.794Z,1018.22
2018-09-27T00:10:38.771Z,1018.23
2018-09-27T00:11:38.745Z,1018.25
2018-09-27T00:12:38.717Z,1018.21
2018-09-27T00:13:38.697Z,1018.22
2018-09-27T00:14:38.667Z,1018.20
2018-09-27T00:15:38.642Z,1018.19
2018-09-27T00:16:38.623Z,1018.19
2018-09-27T00:17:38.584Z,1018.19
2018-09-27T00:18:38.559Z,1018.16
2018-09-27T00:19:38.592Z,1018.17
2018-09-27T00:20:38.505Z,1018.19
2018-09-27T00:21:38.485Z,1018.18
2018-09-27T00:22:38.460Z,1018.21
2018-09-27T00:23:38.428Z,1018.20
2018-09-27T00:24:38.397Z,1018.17
2018-09-27T00:25:38.381Z,1018.16
2018-09-27T00:26:38.352Z,1018.14
2018-09-27T00:27:38.322Z,1018.17
2018-09-27T00:28:38.307Z,1018.14
2018-09-27T00:29:38.268Z,1018.14
2018-09-27T00:30:38.245Z,1018.15
2018-09-27T00:31:38.259Z,1018.09
2018-09-27T00:32:38.212Z,1018.08
2018-09-27T00:33:38.196Z,1018.07
2018-09-27T00:34:38.134Z,1018.09
2018-09-27T00:35:38.120Z,1018.11
2018-09-27T00:36:38.093Z,1018.13
2018-09-27T00:37:38.064Z,1018.12
2018-09-27T00:38:38.040Z,1018.09
2018-09-27T00:39:38.009Z,1018.10
2018-09-27T00:40:37.981Z,1018.09
2018-09-27T00:41:37.955Z,1018.07
2018-09-27T00:42:37.933Z,1018.09
2018-09-27T00:43:37.905Z,1018.09
2018-09-27T00:44:37.878Z,1018.05
2018-09-27T00:45:37.848Z,1018.07
2018-09-27T00:46:37.824Z,1018.02
2018-09-27T00:47:37.797Z,1018.01
2018-09-27T00:48:37.774Z,1018.01
2018-09-27T00:49:37.739Z,1017.99
2018-09-27T00:50:37.719Z,1017.99
2018-09-27T00:51:37.696Z,1018.02
2018-09-27T00:52:37.670Z,1017.99
2018-09-27T00:53:37.642Z,1018.03
2018-09-27T00:54:37.613Z,1017.98
2018-09-27T00:55:37.594Z,1017.97
2018-09-27T00:56:37.561Z,1017.95
2018-09-27T00:57:37.531Z,1017.97
2018-09-27T00:58:37.510Z,1017.98
2018-09-27T00:59:37.478Z,1018.00
2018-09-27T01:00:37.453Z,1017.97
2018-09-27T01:01:37.429Z,1017.97
2018-09-27T01:02:37.399Z,1017.96
2018-09-27T01:03:37.376Z,1017.98
2018-09-27T01:04:37.354Z,1017.96
2018-09-27T01:05:37.321Z,1017.97
2018-09-27T01:06:37.300Z,1017.96
2018-09-27T01:07:37.267Z,1017.96
2018-09-27T01:08:37.244Z,1017.94
2018-09-27T01:09:37.223Z,1017.97
2018-09-27T01:10:37.198Z,1017.97
2018-09-27T01:11:37.177Z,1017.95
2018-09-27T01:12:37.140Z,1017.95
2018-09-27T01:13:37.115Z,1017.98
2018-09-27T01:14:37.092Z,1017.95
2018-09-27T01:15:37.054Z,1017.97
2018-09-27T01:16:37.028Z,1017.96
2018-09-27T01:17:37.008Z,1018.00
2018-09-27T01:18:36.977Z,1017.98
2018-09-27T01:19:36.960Z,1018.01
2018-09-27T01:20:36.929Z,1018.04
2018-09-27T01:21:36.905Z,1018.02
2018-09-27T01:22:36.878Z,1018.01
2018-09-27T01:23:36.844Z,1017.99
2018-09-27T01:24:36.825Z,1017.95
2018-09-27T01:25:36.791Z,1017.95
2018-09-27T01:26:36.770Z,1017.91
2018-09-27T01:27:36.745Z,1017.90
2018-09-27T01:28:36.710Z,1017.88
2018-09-27T01:29:36.693Z,1017.88
2018-09-27T01:30:36.663Z,1017.91
2018-09-27T01:31:36.637Z,1017.91
2018-09-27T01:32:36.615Z,1017.90
2018-09-27T01:33:36.579Z,1017.89
2018-09-27T01:34:36.553Z,1017.92
2018-09-27T01:35:36.530Z,1017.91
2018-09-27T01:36:36.498Z,1017.91
2018-09-27T01:37:36.480Z,1017.89
2018-09-27T01:38:36.454Z,1017.91
2018-09-27T01:39:36.423Z,1017.89
2018-09-27T01:40:36.401Z,1017.88
2018-09-27T01:41:36.368Z,1017.93
2018-09-27T01:42:36.345Z,1017.93
2018-09-27T01:43:36.331Z,1017.87
2018-09-27T01:44:36.292Z,1017.88
2018-09-27T01:45:36.267Z,1017.84
2018-09-27T01:46:36.245Z,1017.81
2018-09-27T01:47:42.790Z,1017.80
2018-09-27T01:48:36.186Z,1017.83
2018-09-27T01:49:36.161Z,1017.80
2018-09-27T01:50:36.136Z,1017.80
2018-09-27T01:51:36.110Z,1017.78
2018-09-27T01:52:36.085Z,1017.74
2018-09-27T01:53:36.053Z,1017.79
2018-09-27T01:54:36.030Z,1017.76
2018-09-27T01:55:36.004Z,1017.75
2018-09-27T01:56:35.976Z,1017.77
2018-09-27T01:57:35.945Z,1017.75
2018-09-27T01:58:35.926Z,1017.75
2018-09-27T01:59:35.900Z,1017.77
2018-09-27T02:00:35.868Z,1017.78
2018-09-27T02:01:35.846Z,1017.79
2018-09-27T02:02:35.811Z,1017.75
2018-09-27T02:03:35.793Z,1017.78
2018-09-27T02:04:35.762Z,1017.78
2018-09-27T02:05:35.746Z,1017.73
2018-09-27T02:06:35.713Z,1017.69
2018-09-27T02:07:35.686Z,1017.70
2018-09-27T02:08:35.661Z,1017.67
2018-09-27T02:09:35.630Z,1017.64
2018-09-27T02:10:35.605Z,1017.63
2018-09-27T02:11:35.575Z,1017.64
2018-09-27T02:12:35.553Z,1017.63
2018-09-27T02:13:35.527Z,1017.59
2018-09-27T02:14:35.497Z,1017.60
2018-09-27T02:15:35.473Z,1017.61
2018-09-27T02:16:35.443Z,1017.63
2018-09-27T02:17:35.415Z,1017.60
2018-09-27T02:18:35.399Z,1017.57
2018-09-27T02:19:35.367Z,1017.54
2018-09-27T02:20:35.334Z,1017.54
2018-09-27T02:21:35.316Z,1017.53
2018-09-27T02:22:35.291Z,1017.54
2018-09-27T02:23:35.264Z,1017.58
2018-09-27T02:24:35.238Z,1017.57
2018-09-27T02:25:35.209Z,1017.54
2018-09-27T02:26:35.185Z,1017.57
2018-09-27T02:27:35.158Z,1017.53
2018-09-27T02:28:35.128Z,1017.50
2018-09-27T02:29:35.098Z,1017.48
2018-09-27T02:30:35.073Z,1017.45
2018-09-27T02:31:35.052Z,1017.44
2018-09-27T02:32:35.023Z,1017.47
2018-09-27T02:33:35.005Z,1017.45
2018-09-27T02:34:34.970Z,1017.38
2018-09-27T02:35:34.940Z,1017.39
2018-09-27T02:36:34.921Z,1017.41
2018-09-27T02:37:34.884Z,1017.37
2018-09-27T02:38:34.870Z,1017.34
2018-09-27T02:39:34.847Z,1017.39
2018-09-27T02:40:34.811Z,1017.38
2018-09-27T02:41:34.782Z,1017.38
2018-09-27T02:42:34.754Z,1017.37
2018-09-27T02:43:34.738Z,1017.36
2018-09-27T02:44:34.707Z,1017.39
2018-09-27T02:45:34.676Z,1017.40
2018-09-27T02:46:34.652Z,1017.39
2018-09-27T02:47:34.631Z,1017.38
2018-09-27T02:48:34.599Z,1017.37
2018-09-27T02:49:34.578Z,1017.32
2018-09-27T02:50:34.548Z,1017.35
2018-09-27T02:51:34.522Z,1017.37
2018-09-27T02:52:34.497Z,1017.35
2018-09-27T02:53:34.466Z,1017.27
2018-09-27T02:54:34.441Z,1017.27
2018-09-27T02:55:34.414Z,1017.31
2018-09-27T02:56:34.385Z,1017.30
2018-09-27T02:57:34.366Z,1017.34
2018-09-27T02:58:34.337Z,1017.32
2018-09-27T02:59:34.310Z,1017.27
2018-09-27T03:00:34.280Z,1017.26
2018-09-27T03:01:34.258Z,1017.23
2018-09-27T03:02:34.222Z,1017.24
2018-09-27T03:03:34.205Z,1017.25
2018-09-27T03:04:34.174Z,1017.25
2018-09-27T03:05:34.145Z,1017.22
2018-09-27T03:06:34.121Z,1017.18
2018-09-27T03:07:34.101Z,1017.19
2018-09-27T03:08:34.071Z,1017.15
2018-09-27T03:09:34.044Z,1017.14
2018-09-27T03:10:34.036Z,1017.16
2018-09-27T03:11:33.989Z,1017.16
2018-09-27T03:12:33.961Z,1017.15
2018-09-27T03:13:33.943Z,1017.15
2018-09-27T03:14:33.909Z,1017.11
2018-09-27T03:15:33.885Z,1017.10
2018-09-27T03:16:33.856Z,1017.10
2018-09-27T03:17:33.830Z,1017.07
2018-09-27T03:18:33.803Z,1017.02
2018-09-27T03:19:33.781Z,1017.06
2018-09-27T03:20:33.749Z,1017.04
2018-09-27T03:21:33.723Z,1017.05
2018-09-27T03:22:33.695Z,1017.02
2018-09-27T03:23:33.674Z,1017.02
2018-09-27T03:24:33.644Z,1017.04
2018-09-27T03:25:33.617Z,1017.00
2018-09-27T03:26:33.592Z,1016.99
2018-09-27T03:27:33.563Z,1017.00
2018-09-27T03:28:33.534Z,1017.02
2018-09-27T03:29:33.511Z,1017.00
2018-09-27T03:30:33.500Z,1016.98
2018-09-27T03:31:33.452Z,1016.97
2018-09-27T03:32:33.431Z,1016.96
2018-09-27T03:33:33.405Z,1016.97
2018-09-27T03:34:33.374Z,1016.96
2018-09-27T03:35:33.359Z,1016.94
2018-09-27T03:36:33.325Z,1016.92
2018-09-27T03:37:33.299Z,1016.90
2018-09-27T03:38:33.273Z,1016.89
2018-09-27T03:39:33.247Z,1016.91
2018-09-27T03:40:33.305Z,1016.91
2018-09-27T03:41:33.193Z,1016.91
2018-09-27T03:42:33.164Z,1016.93
2018-09-27T03:43:33.144Z,1016.89
2018-09-27T03:44:33.112Z,1016.89
2018-09-27T03:45:33.084Z,1016.90
2018-09-27T03:46:33.058Z,1016.88
2018-09-27T03:47:33.035Z,1016.86
2018-09-27T03:48:33.003Z,1016.85
2018-09-27T03:49:32.980Z,1016.85
2018-09-27T03:50:32.960Z,1016.83
2018-09-27T03:51:32.921Z,1016.82
2018-09-27T03:52:32.901Z,1016.81
2018-09-27T03:53:32.871Z,1016.80
2018-09-27T03:54:32.848Z,1016.78
2018-09-27T03:55:32.817Z,1016.77
2018-09-27T03:56:32.793Z,1016.77
2018-09-27T03:57:32.767Z,1016.78
2018-09-27T03:58:32.736Z,1016.78
2018-09-27T03:59:32.721Z,1016.77
2018-09-27T04:00:32.694Z,1016.79
2018-09-27T04:01:32.657Z,1016.74
2018-09-27T04:02:32.637Z,1016.79
2018-09-27T04:03:32.609Z,1016.79
2018-09-27T04:04:32.576Z,1016.77
2018-09-27T04:05:32.559Z,1016.77
2018-09-27T04:06:32.525Z,1016.71
2018-09-27T04:07:32.506Z,1016.74
2018-09-27T04:08:32.469Z,1016.70
2018-09-27T04:09:32.449Z,1016.71
2018-09-27T04:10:32.421Z,1016.70
2018-09-27T04:11:32.398Z,1016.66
2018-09-27T04:12:32.369Z,1016.68
2018-09-27T04:13:32.342Z,1016.63
2018-09-27T04:14:32.315Z,1016.62
2018-09-27T04:15:32.290Z,1016.64
2018-09-27T04:16:32.261Z,1016.66
2018-09-27T04:17:32.238Z,1016.64
2018-09-27T04:18:32.204Z,1016.64
2018-09-27T04:19:32.184Z,1016.60
2018-09-27T04:20:32.159Z,1016.63
2018-09-27T04:21:32.124Z,1016.63
2018-09-27T04:22:32.106Z,1016.60
2018-09-27T04:23:32.080Z,1016.59
2018-09-27T04:24:32.050Z,1016.57
2018-09-27T04:25:32.023Z,1016.60
2018-09-27T04:26:31.997Z,1016.58
2018-09-27T04:27:31.973Z,1016.59
2018-09-27T04:28:31.944Z,1016.61
2018-09-27T04:29:31.913Z,1016.59
2018-09-27T04:30:32.920Z,1016.62
2018-09-27T04:31:31.860Z,1016.59
2018-09-27T04:32:31.839Z,1016.51
2018-09-27T04:33:31.803Z,1016.53
2018-09-27T04:34:31.789Z,1016.53
2018-09-27T04:35:31.749Z,1016.56
2018-09-27T04:36:31.727Z,1016.53
2018-09-27T04:37:31.709Z,1016.51
2018-09-27T04:38:31.671Z,1016.51
2018-09-27T04:39:31.654Z,1016.56
2018-09-27T04:40:31.624Z,1016.53
2018-09-27T04:41:31.596Z,1016.52
2018-09-27T04:42:31.573Z,1016.55
2018-09-27T04:43:31.543Z,1016.54
2018-09-27T04:44:31.513Z,1016.55
2018-09-27T04:45:31.495Z,1016.52
2018-09-27T04:46:31.482Z,1016.48
2018-09-27T04:47:31.438Z,1016.59
2018-09-27T04:48:31.405Z,1016.52
2018-09-27T04:49:31.387Z,1016.52
2018-09-27T04:50:31.357Z,1016.54
2018-09-27T04:51:31.327Z,1016.54
2018-09-27T04:52:31.309Z,1016.53
2018-09-27T04:53:31.277Z,1016.55
2018-09-27T04:54:31.303Z,1016.60
2018-09-27T04:55:31.224Z,1016.60
2018-09-27T04:56:31.201Z,1016.55
2018-09-27T04:57:31.165Z,1016.59
2018-09-27T04:58:31.142Z,1016.60
2018-09-27T04:59:31.117Z,1016.59
2018-09-27T05:00:31.091Z,1016.55
2018-09-27T05:01:31.061Z,1016.55
2018-09-27T05:02:31.034Z,1016.53
2018-09-27T05:03:31.019Z,1016.50
2018-09-27T05:04:30.987Z,1016.55
2018-09-27T05:05:30.954Z,1016.51
2018-09-27T05:06:30.972Z,1016.52
2018-09-27T05:07:30.901Z,1016.54
2018-09-27T05:08:30.875Z,1016.57
2018-09-27T05:09:30.893Z,1016.59
2018-09-27T05:10:30.819Z,1016.55
2018-09-27T05:11:30.803Z,1016.57
2018-09-27T05:12:30.771Z,1016.55
2018-09-27T05:13:30.750Z,1016.58
2018-09-27T05:14:30.714Z,1016.54
2018-09-27T05:15:30.726Z,1016.53
2018-09-27T05:16:30.666Z,1016.51
2018-09-27T05:17:30.638Z,1016.50
2018-09-27T05:18:30.611Z,1016.50
2018-09-27T05:19:30.587Z,1016.47
2018-09-27T05:20:30.606Z,1016.48
2018-09-27T05:21:30.569Z,1016.45
2018-09-27T05:22:30.501Z,1016.53
2018-09-27T05:23:30.478Z,1016.47
2018-09-27T05:24:30.454Z,1016.50
2018-09-27T05:25:30.422Z,1016.47
2018-09-27T05:26:30.398Z,1016.49
2018-09-27T05:27:30.379Z,1016.48
2018-09-27T05:28:30.341Z,1016.44
2018-09-27T05:29:30.316Z,1016.47
2018-09-27T05:30:30.289Z,1016.42
2018-09-27T05:31:30.271Z,1016.40
2018-09-27T05:32:30.240Z,1016.40
2018-09-27T05:33:30.228Z,1016.40
2018-09-27T05:34:30.189Z,1016.40
2018-09-27T05:35:30.163Z,1016.42
2018-09-27T05:36:30.127Z,1016.42
2018-09-27T05:37:30.108Z,1016.41
2018-09-27T05:38:30.074Z,1016.40
2018-09-27T05:39:30.062Z,1016.37
2018-09-27T05:40:30.022Z,1016.40
2018-09-27T05:41:29.997Z,1016.39
2018-09-27T05:42:29.970Z,1016.38
2018-09-27T05:43:29.953Z,1016.40
2018-09-27T05:44:29.924Z,1016.37
2018-09-27T05:45:29.897Z,1016.41
2018-09-27T05:46:29.863Z,1016.38
2018-09-27T05:47:29.838Z,1016.39
2018-09-27T05:48:29.808Z,1016.37
2018-09-27T05:49:29.793Z,1016.32
2018-09-27T05:50:29.757Z,1016.39
2018-09-27T05:51:29.775Z,1016.36
2018-09-27T05:52:29.711Z,1016.38
2018-09-27T05:53:29.682Z,1016.36
2018-09-27T05:54:29.662Z,1016.38
2018-09-27T05:55:29.629Z,1016.31
2018-09-27T05:56:29.646Z,1016.33
2018-09-27T05:57:29.640Z,1016.37
2018-09-27T05:58:29.577Z,1016.34
2018-09-27T05:59:29.521Z,1016.37
2018-09-27T06:00:29.518Z,1016.38
2018-09-27T06:01:29.481Z,1016.39
2018-09-27T06:02:29.436Z,1016.34
2018-09-27T06:03:29.469Z,1016.37
2018-09-27T06:04:29.389Z,1016.39
2018-09-27T06:05:29.357Z,1016.37
2018-09-27T06:06:29.345Z,1016.36
2018-09-27T06:07:29.301Z,1016.36
2018-09-27T06:08:29.271Z,1016.33
2018-09-27T06:09:29.306Z,1016.37
2018-09-27T06:10:29.226Z,1016.34
2018-09-27T06:11:29.250Z,1016.32
2018-09-27T06:12:29.178Z,1016.32
2018-09-27T06:13:29.141Z,1016.35
2018-09-27T06:14:29.116Z,1016.27
2018-09-27T06:15:29.116Z,1016.31
2018-09-27T06:16:29.069Z,1016.28
2018-09-27T06:17:29.032Z,1016.29
2018-09-27T06:18:29.017Z,1016.34
2018-09-27T06:19:29.012Z,1016.34
2018-09-27T06:20:28.958Z,1016.33
2018-09-27T06:21:28.989Z,1016.28
2018-09-27T06:22:28.905Z,1016.34
2018-09-27T06:23:28.876Z,1016.31
2018-09-27T06:24:28.848Z,1016.34
2018-09-27T06:25:28.824Z,1016.30
2018-09-27T06:26:28.802Z,1016.27
2018-09-27T06:27:28.772Z,1016.26
2018-09-27T06:28:28.742Z,1016.26
2018-09-27T06:29:28.727Z,1016.23
2018-09-27T06:30:28.694Z,1016.27
2018-09-27T06:31:28.662Z,1016.29
2018-09-27T06:32:28.636Z,1016.28
2018-09-27T06:33:28.627Z,1016.32
2018-09-27T06:34:28.582Z,1016.33
2018-09-27T06:35:28.564Z,1016.38
2018-09-27T06:36:28.534Z,1016.33
2018-09-27T06:37:28.500Z,1016.36
2018-09-27T06:38:28.551Z,1016.34
2018-09-27T06:39:28.458Z,1016.38
2018-09-27T06:40:28.431Z,1016.37
2018-09-27T06:41:28.440Z,1016.36
2018-09-27T06:42:28.368Z,1016.40
2018-09-27T06:43:28.352Z,1016.35
2018-09-27T06:44:28.379Z,1016.35
2018-09-27T06:45:28.291Z,1016.36
2018-09-27T06:46:28.266Z,1016.36
2018-09-27T06:47:28.246Z,1016.36
2018-09-27T06:48:28.284Z,1016.38
2018-09-27T06:49:28.188Z,1016.34
2018-09-27T06:50:28.192Z,1016.32
2018-09-27T06:51:28.139Z,1016.34
2018-09-27T06:52:28.103Z,1016.31
2018-09-27T06:53:28.086Z,1016.33
2018-09-27T06:54:28.052Z,1016.36
2018-09-27T06:55:28.197Z,1016.30
2018-09-27T06:56:28.058Z,1016.26
2018-09-27T06:57:27.975Z,1016.23
2018-09-27T06:58:27.944Z,1016.24
2018-09-27T06:59:27.920Z,1016.25
2018-09-27T07:00:27.909Z,1016.27
2018-09-27T07:01:27.867Z,1016.24
2018-09-27T07:02:27.859Z,1016.25
2018-09-27T07:03:27.824Z,1016.27
2018-09-27T07:04:27.784Z,1016.24
2018-09-27T07:05:27.773Z,1016.28
2018-09-27T07:06:27.739Z,1016.31
2018-09-27T07:07:27.708Z,1016.30
2018-09-27T07:08:27.693Z,1016.28
2018-09-27T07:09:27.655Z,1016.29
2018-09-27T07:10:27.634Z,1016.32
2018-09-27T07:11:27.606Z,1016.32
2018-09-27T07:12:27.751Z,1016.33
2018-09-27T07:13:27.554Z,1016.33
2018-09-27T07:14:27.547Z,1016.27
2018-09-27T07:15:27.517Z,1016.27
2018-09-27T07:16:27.474Z,1016.32
2018-09-27T07:17:27.440Z,1016.26
2018-09-27T07:18:27.413Z,1016.27
2018-09-27T07:19:27.401Z,1016.29
2018-09-27T07:20:27.412Z,1016.28
2018-09-27T07:21:27.336Z,1016.30
2018-09-27T07:22:27.314Z,1016.29
2018-09-27T07:23:27.281Z,1016.25
2018-09-27T07:24:27.257Z,1016.27
2018-09-27T07:25:27.229Z,1016.26
2018-09-27T07:26:27.280Z,1016.29
2018-09-27T07:27:27.181Z,1016.28
2018-09-27T07:28:27.292Z,1016.25
2018-09-27T07:29:27.125Z,1016.24
2018-09-27T07:30:27.227Z,1016.25
2018-09-27T07:31:27.074Z,1016.25
2018-09-27T07:32:27.080Z,1016.24
2018-09-27T07:33:27.021Z,1016.25
2018-09-27T07:34:26.990Z,1016.24
2018-09-27T07:35:26.969Z,1016.22
2018-09-27T07:36:26.966Z,1016.24
2018-09-27T07:37:26.939Z,1016.23
2018-09-27T07:38:26.888Z,1016.22
2018-09-27T07:39:26.859Z,1016.23
2018-09-27T07:40:26.837Z,1016.21
2018-09-27T07:41:26.802Z,1016.24
2018-09-27T07:42:26.784Z,1016.22
2018-09-27T07:43:26.755Z,1016.22
2018-09-27T07:44:26.731Z,1016.23
2018-09-27T07:45:26.700Z,1016.19
2018-09-27T07:46:26.675Z,1016.17
2018-09-27T07:47:26.648Z,1016.21
2018-09-27T07:48:26.666Z,1016.21
2018-09-27T07:49:26.599Z,1016.20
2018-09-27T07:50:26.575Z,1016.22
2018-09-27T07:51:26.546Z,1016.20
2018-09-27T07:52:26.516Z,1016.18
2018-09-27T07:53:26.484Z,1016.20
2018-09-27T07:54:26.568Z,1016.15
2018-09-27T07:55:26.438Z,1016.19
2018-09-27T07:56:26.437Z,1016.18
2018-09-27T07:57:26.393Z,1016.16
2018-09-27T07:58:26.353Z,1016.18
2018-09-27T07:59:26.339Z,1016.21
2018-09-27T08:00:26.306Z,1016.20
2018-09-27T08:01:26.280Z,1016.18
2018-09-27T08:02:26.326Z,1016.16
2018-09-27T08:03:26.227Z,1016.16
2018-09-27T08:04:26.202Z,1016.15
2018-09-27T08:05:26.171Z,1016.13
2018-09-27T08:06:26.149Z,1016.09
2018-09-27T08:07:26.119Z,1016.11
2018-09-27T08:08:26.121Z,1016.10
2018-09-27T08:09:26.072Z,1016.13
2018-09-27T08:10:26.041Z,1016.11
2018-09-27T08:11:26.034Z,1016.12
2018-09-27T08:12:25.993Z,1016.13
2018-09-27T08:13:25.957Z,1016.12
2018-09-27T08:14:25.954Z,1016.13
2018-09-27T08:15:25.912Z,1016.12
2018-09-27T08:16:25.884Z,1016.11
2018-09-27T08:17:25.866Z,1016.12
2018-09-27T08:18:25.834Z,1016.13
2018-09-27T08:19:25.804Z,1016.14
2018-09-27T08:20:25.860Z,1016.15
2018-09-27T08:21:25.762Z,1016.12
2018-09-27T08:22:25.728Z,1016.12
2018-09-27T08:23:25.700Z,1016.09
2018-09-27T08:24:25.679Z,1016.07
2018-09-27T08:25:25.642Z,1016.09
2018-09-27T08:26:25.675Z,1016.09
2018-09-27T08:27:25.590Z,1016.08
2018-09-27T08:28:25.567Z,1016.04
2018-09-27T08:29:25.547Z,1016.08
2018-09-27T08:30:25.516Z,1016.04
2018-09-27T08:31:25.498Z,1016.02
2018-09-27T08:32:25.510Z,1016.02
2018-09-27T08:33:25.435Z,1016.06
2018-09-27T08:34:25.413Z,1016.00
2018-09-27T08:35:25.389Z,1016.00
2018-09-27T08:36:25.358Z,1015.98
2018-09-27T08:37:25.335Z,1015.98
2018-09-27T08:38:25.376Z,1016.02
2018-09-27T08:39:25.286Z,1015.94
2018-09-27T08:40:25.256Z,1015.98
2018-09-27T08:41:25.234Z,1015.97
2018-09-27T08:42:25.207Z,1015.95
2018-09-27T08:43:25.176Z,1015.95
2018-09-27T08:44:25.179Z,1015.94
2018-09-27T08:45:25.392Z,1015.92
2018-09-27T08:46:25.097Z,1015.93
2018-09-27T08:47:25.108Z,1015.96
2018-09-27T08:48:25.047Z,1015.96
2018-09-27T08:49:25.018Z,1015.94
2018-09-27T08:50:24.994Z,1015.96
2018-09-27T08:51:24.983Z,1015.98
2018-09-27T08:52:24.945Z,1015.95
2018-09-27T08:53:24.916Z,1015.97
2018-09-27T08:54:24.889Z,1015.95
2018-09-27T08:55:24.905Z,1015.91
2018-09-27T08:56:24.921Z,1015.89
2018-09-27T08:57:24.829Z,1015.86
2018-09-27T08:58:24.783Z,1015.85
2018-09-27T08:59:24.761Z,1015.76
2018-09-27T09:00:24.741Z,1015.79
2018-09-27T09:01:24.726Z,1015.76
2018-09-27T09:02:24.687Z,1015.74
2018-09-27T09:03:24.739Z,1015.74
2018-09-27T09:04:24.627Z,1015.73
2018-09-27T09:05:24.610Z,1015.74
2018-09-27T09:06:24.576Z,1015.69
2018-09-27T09:07:24.561Z,1015.69
2018-09-27T09:08:24.536Z,1015.71
2018-09-27T09:09:24.552Z,1015.69
2018-09-27T09:10:24.479Z,1015.70
2018-09-27T09:11:24.445Z,1015.65
2018-09-27T09:12:24.434Z,1015.65
2018-09-27T09:13:24.428Z,1015.61
2018-09-27T09:14:24.376Z,1015.54
2018-09-27T09:15:24.369Z,1015.57
2018-09-27T09:16:24.315Z,1015.55
2018-09-27T09:17:24.299Z,1015.52
2018-09-27T09:18:24.265Z,1015.48
2018-09-27T09:19:24.284Z,1015.49
2018-09-27T09:20:24.227Z,1015.45
2018-09-27T09:21:24.215Z,1015.44
2018-09-27T09:22:24.167Z,1015.43
2018-09-27T09:23:24.144Z,1015.41
2018-09-27T09:24:24.155Z,1015.45
2018-09-27T09:25:24.098Z,1015.40
2018-09-27T09:26:24.064Z,1015.41
2018-09-27T09:27:24.082Z,1015.40
2018-09-27T09:28:24.042Z,1015.40
2018-09-27T09:29:24.056Z,1015.39
2018-09-27T09:30:23.962Z,1015.38
2018-09-27T09:31:23.931Z,1015.39
2018-09-27T09:32:23.916Z,1015.34
2018-09-27T09:33:23.933Z,1015.35
2018-09-27T09:34:23.862Z,1015.35
2018-09-27T09:35:23.837Z,1015.34
2018-09-27T09:36:23.806Z,1015.33
2018-09-27T09:37:23.776Z,1015.35
2018-09-27T09:38:23.754Z,1015.32
2018-09-27T09:39:23.728Z,1015.31
2018-09-27T09:40:23.746Z,1015.29
2018-09-27T09:41:23.684Z,1015.26
2018-09-27T09:42:23.650Z,1015.28
2018-09-27T09:43:23.626Z,1015.26
2018-09-27T09:44:23.607Z,1015.21
2018-09-27T09:45:23.575Z,1015.22
2018-09-27T09:46:23.553Z,1015.22
2018-09-27T09:47:23.527Z,1015.21
2018-09-27T09:48:23.497Z,1015.14
2018-09-27T09:49:23.474Z,1015.12
2018-09-27T09:50:23.446Z,1015.15
2018-09-27T09:51:23.427Z,1015.10
2018-09-27T09:52:23.401Z,1015.09
2018-09-27T09:53:23.374Z,1015.08
2018-09-27T09:54:23.343Z,1015.05
2018-09-27T09:55:23.322Z,1015.02
2018-09-27T09:56:23.299Z,1015.00
2018-09-27T09:57:23.271Z,1015.00
2018-09-27T09:58:23.249Z,1014.96
2018-09-27T09:59:23.217Z,1014.95
2018-09-27T10:00:23.197Z,1014.97
2018-09-27T10:01:23.170Z,1014.90
2018-09-27T10:02:23.154Z,1014.87
2018-09-27T10:03:23.127Z,1014.92
2018-09-27T10:04:23.091Z,1014.89
2018-09-27T10:05:23.065Z,1014.87
2018-09-27T10:06:23.047Z,1014.83
2018-09-27T10:07:23.012Z,1014.80
2018-09-27T10:08:22.996Z,1014.77
2018-09-27T10:09:22.969Z,1014.77
2018-09-27T10:10:22.947Z,1014.70
2018-09-27T10:11:22.914Z,1014.72
2018-09-27T10:12:22.887Z,1014.69
2018-09-27T10:13:22.872Z,1014.71
2018-09-27T10:14:22.837Z,1014.65
2018-09-27T10:15:22.814Z,1014.67
2018-09-27T10:16:22.791Z,1014.65
2018-09-27T10:17:22.768Z,1014.65
2018-09-27T10:18:22.736Z,1014.63
2018-09-27T10:19:22.717Z,1014.68
2018-09-27T10:20:22.693Z,1014.62
2018-09-27T10:21:22.664Z,1014.63
2018-09-27T10:22:22.643Z,1014.62
2018-09-27T10:23:22.622Z,1014.61
2018-09-27T10:24:22.585Z,1014.59
2018-09-27T10:25:22.568Z,1014.59
2018-09-27T10:26:22.541Z,1014.53
2018-09-27T10:27:22.561Z,1014.55
2018-09-27T10:28:22.492Z,1014.52
2018-09-27T10:29:22.465Z,1014.53
2018-09-27T10:30:22.438Z,1014.49
2018-09-27T10:31:22.415Z,1014.46
2018-09-27T10:32:22.387Z,1014.44
2018-09-27T10:33:22.362Z,1014.43
2018-09-27T10:34:22.436Z,1014.44
2018-09-27T10:35:22.320Z,1014.45
2018-09-27T10:36:22.285Z,1014.39
2018-09-27T10:37:22.260Z,1014.42
2018-09-27T10:38:22.238Z,1014.37
2018-09-27T10:39:22.209Z,1014.37
2018-09-27T10:40:22.192Z,1014.39
2018-09-27T10:41:22.163Z,1014.37
2018-09-27T10:42:22.136Z,1014.40
2018-09-27T10:43:22.119Z,1014.42
2018-09-27T10:44:22.091Z,1014.41
2018-09-27T10:45:22.067Z,1014.35
2018-09-27T10:46:22.034Z,1014.33
2018-09-27T10:47:22.021Z,1014.35
2018-09-27T10:48:21.984Z,1014.33
2018-09-27T10:49:21.968Z,1014.28
2018-09-27T10:50:21.937Z,1014.33
2018-09-27T10:51:21.924Z,1014.33
2018-09-27T10:52:21.892Z,1014.31
2018-09-27T10:53:21.863Z,1014.28
2018-09-27T10:54:21.843Z,1014.27
2018-09-27T10:55:21.821Z,1014.29
2018-09-27T10:56:21.792Z,1014.27
2018-09-27T10:57:21.768Z,1014.25
2018-09-27T10:58:21.735Z,1014.30
2018-09-27T10:59:21.717Z,1014.29
2018-09-27T11:00:21.691Z,1014.24
2018-09-27T11:01:21.668Z,1014.25
2018-09-27T11:02:21.640Z,1014.27
2018-09-27T11:03:21.612Z,1014.24
2018-09-27T11:04:21.598Z,1014.22
2018-09-27T11:05:21.572Z,1014.20
2018-09-27T11:06:21.542Z,1014.16
2018-09-27T11:07:21.521Z,1014.18
2018-09-27T11:08:21.490Z,1014.22
2018-09-27T11:09:21.465Z,1014.12
2018-09-27T11:10:21.445Z,1014.18
2018-09-27T11:11:21.486Z,1014.13
2018-09-27T11:12:21.397Z,1014.11
2018-09-27T11:13:21.372Z,1014.17
2018-09-27T11:14:21.349Z,1014.10
2018-09-27T11:15:21.317Z,1014.12
2018-09-27T11:16:21.291Z,1014.11
2018-09-27T11:17:21.276Z,1014.07
2018-09-27T11:18:21.244Z,1014.07
2018-09-27T11:19:21.228Z,1014.02
2018-09-27T11:20:21.193Z,1013.96
2018-09-27T11:21:21.169Z,1013.98
2018-09-27T11:22:21.150Z,1013.95
2018-09-27T11:23:21.122Z,1013.92
2018-09-27T11:24:21.096Z,1013.94
2018-09-27T11:25:21.071Z,1013.86
2018-09-27T11:26:21.054Z,1013.86
2018-09-27T11:27:21.033Z,1013.86
2018-09-27T11:28:20.999Z,1013.84
2018-09-27T11:29:20.982Z,1013.81
2018-09-27T11:30:20.956Z,1013.74
2018-09-27T11:31:20.926Z,1013.76
2018-09-27T11:32:20.905Z,1013.66
2018-09-27T11:33:20.877Z,1013.72
2018-09-27T11:34:20.850Z,1013.68
2018-09-27T11:35:20.822Z,1013.73
2018-09-27T11:36:20.843Z,1013.70
2018-09-27T11:37:20.775Z,1013.70
2018-09-27T11:38:20.759Z,1013.69
2018-09-27T11:39:20.731Z,1013.69
2018-09-27T11:40:20.706Z,1013.64
2018-09-27T11:41:20.677Z,1013.63
2018-09-27T11:42:20.665Z,1013.60
2018-09-27T11:43:20.625Z,1013.57
2018-09-27T11:44:20.611Z,1013.58
2018-09-27T11:45:20.577Z,1013.53
2018-09-27T11:46:20.560Z,1013.49
2018-09-27T11:47:20.537Z,1013.52
2018-09-27T11:48:20.503Z,1013.49
2018-09-27T11:49:20.552Z,1013.42
2018-09-27T11:50:20.521Z,1013.40
2018-09-27T11:51:20.439Z,1013.47
2018-09-27T11:52:20.414Z,1013.43
2018-09-27T11:53:20.388Z,1013.39
2018-09-27T11:54:20.356Z,1013.35
2018-09-27T11:55:20.339Z,1013.35
2018-09-27T11:56:20.316Z,1013.36
2018-09-27T11:57:20.286Z,1013.28
2018-09-27T11:58:20.267Z,1013.26
2018-09-27T11:59:20.248Z,1013.21
2018-09-27T12:00:20.210Z,1013.22
2018-09-27T12:01:20.195Z,1013.23
2018-09-27T12:02:20.163Z,1013.20
2018-09-27T12:03:20.144Z,1013.19
2018-09-27T12:04:20.121Z,1013.13
2018-09-27T12:05:20.088Z,1013.07